sensor_id;sensor_type;location;lat;lon;timestamp;P1;durP1;ratioP1;P2;durP2;ratioP2
665;SDS011;315;48.738;9.126;2023-11-19T00:02:07;4.63;;;4.13;;
665;SDS011;315;48.738;9.126;2023-11-19T00:04:33;5.47;;;4.93;;
665;SDS011;315;48.738;9.126;2023-11-19T00:07:04;6.47;;;4.87;;
665;SDS011;315;48.738;9.126;2023-11-19T00:09:31;4.10;;;3.70;;
665;SDS011;315;48.738;9.126;2023-11-19T00:12:02;4.00;;;3.30;;
665;SDS011;315;48.738;9.126;2023-11-19T00:14:30;3.27;;;3.07;;
665;SDS011;315;48.738;9.126;2023-11-19T00:16:56;3.80;;;3.47;;
665;SDS011;315;48.738;9.126;2023-11-19T00:19:21;3.40;;;3.10;;
665;SDS011;315;48.738;9.126;2023-11-19T00:21:47;3.80;;;3.20;;
665;SDS011;315;48.738;9.126;2023-11-19T00:24:13;4.53;;;3.00;;
665;SDS011;315;48.738;9.126;2023-11-19T00:26:41;3.37;;;2.83;;
665;SDS011;315;48.738;9.126;2023-11-19T00:29:07;3.37;;;2.70;;
665;SDS011;315;48.738;9.126;2023-11-19T00:31:32;3.73;;;2.77;;
665;SDS011;315;48.738;9.126;2023-11-19T00:33:58;9.03;;;2.67;;
665;SDS011;315;48.738;9.126;2023-11-19T00:36:23;2.90;;;2.60;;
665;SDS011;315;48.738;9.126;2023-11-19T00:38:50;4.43;;;2.60;;
665;SDS011;315;48.738;9.126;2023-11-19T00:41:17;4.37;;;3.70;;
665;SDS011;315;48.738;9.126;2023-11-19T00:43:43;5.13;;;3.07;;
665;SDS011;315;48.738;9.126;2023-11-19T00:46:08;4.33;;;2.43;;
665;SDS011;315;48.738;9.126;2023-11-19T00:48:35;3.57;;;2.33;;
665;SDS011;315;48.738;9.126;2023-11-19T00:51:01;2.80;;;2.53;;
665;SDS011;315;48.738;9.126;2023-11-19T00:53:27;3.13;;;2.53;;
665;SDS011;315;48.738;9.126;2023-11-19T00:55:53;2.70;;;2.50;;
665;SDS011;315;48.738;9.126;2023-11-19T00:58:18;2.30;;;2.07;;
665;SDS011;315;48.738;9.126;2023-11-19T01:00:44;2.80;;;2.10;;
665;SDS011;315;48.738;9.126;2023-11-19T01:03:09;1.80;;;1.70;;
665;SDS011;315;48.738;9.126;2023-11-19T01:05:36;2.10;;;1.90;;
665;SDS011;315;48.738;9.126;2023-11-19T01:08:02;2.67;;;2.00;;
665;SDS011;315;48.738;9.126;2023-11-19T01:10:29;2.20;;;1.63;;
665;SDS011;315;48.738;9.126;2023-11-19T01:12:55;4.13;;;2.10;;
665;SDS011;315;48.738;9.126;2023-11-19T01:15:20;1.63;;;1.53;;
665;SDS011;315;48.738;9.126;2023-11-19T01:17:46;2.83;;;2.23;;
665;SDS011;315;48.738;9.126;2023-11-19T01:20:11;1.83;;;1.33;;
665;SDS011;315;48.738;9.126;2023-11-19T01:22:38;1.77;;;1.50;;
665;SDS011;315;48.738;9.126;2023-11-19T01:25:04;2.60;;;1.70;;
665;SDS011;315;48.738;9.126;2023-11-19T01:27:31;2.10;;;1.23;;
665;SDS011;315;48.738;9.126;2023-11-19T01:29:56;1.17;;;1.07;;
665;SDS011;315;48.738;9.126;2023-11-19T01:32:22;1.23;;;1.13;;
665;SDS011;315;48.738;9.126;2023-11-19T01:34:50;1.40;;;1.30;;
665;SDS011;315;48.738;9.126;2023-11-19T01:37:15;1.83;;;1.20;;
665;SDS011;315;48.738;9.126;2023-11-19T01:39:43;1.67;;;1.10;;
665;SDS011;315;48.738;9.126;2023-11-19T01:42:10;1.30;;;1.20;;
665;SDS011;315;48.738;9.126;2023-11-19T01:44:37;0.90;;;0.90;;
665;SDS011;315;48.738;9.126;2023-11-19T01:47:02;0.80;;;0.80;;
665;SDS011;315;48.738;9.126;2023-11-19T01:49:29;4.30;;;1.57;;
665;SDS011;315;48.738;9.126;2023-11-19T01:51:57;3.03;;;1.00;;
665;SDS011;315;48.738;9.126;2023-11-19T01:54:23;2.20;;;1.10;;
665;SDS011;315;48.738;9.126;2023-11-19T01:56:49;1.37;;;1.20;;
665;SDS011;315;48.738;9.126;2023-11-19T01:59:14;0.80;;;0.80;;
665;SDS011;315;48.738;9.126;2023-11-19T02:01:41;0.60;;;0.60;;
665;SDS011;315;48.738;9.126;2023-11-19T02:04:07;1.17;;;0.80;;
665;SDS011;315;48.738;9.126;2023-11-19T02:06:34;1.30;;;1.20;;
665;SDS011;315;48.738;9.126;2023-11-19T02:09:01;3.10;;;1.00;;
665;SDS011;315;48.738;9.126;2023-11-19T02:11:32;1.07;;;0.90;;
665;SDS011;315;48.738;9.126;2023-11-19T02:13:58;0.80;;;0.70;;
665;SDS011;315;48.738;9.126;2023-11-19T02:16:24;1.17;;;0.70;;
665;SDS011;315;48.738;9.126;2023-11-19T02:18:49;0.80;;;0.73;;
665;SDS011;315;48.738;9.126;2023-11-19T02:21:15;0.90;;;0.90;;
665;SDS011;315;48.738;9.126;2023-11-19T02:23:42;0.80;;;0.80;;
665;SDS011;315;48.738;9.126;2023-11-19T02:29:07;0.60;;;0.60;;
665;SDS011;315;48.738;9.126;2023-11-19T02:31:32;0.90;;;0.90;;
665;SDS011;315;48.738;9.126;2023-11-19T02:34:00;0.80;;;0.80;;
665;SDS011;315;48.738;9.126;2023-11-19T02:36:27;0.70;;;0.70;;
665;SDS011;315;48.738;9.126;2023-11-19T02:38:53;0.90;;;0.70;;
665;SDS011;315;48.738;9.126;2023-11-19T02:41:18;0.90;;;0.73;;
665;SDS011;315;48.738;9.126;2023-11-19T02:43:44;1.40;;;1.23;;
665;SDS011;315;48.738;9.126;2023-11-19T02:46:09;0.87;;;0.87;;
665;SDS011;315;48.738;9.126;2023-11-19T02:48:36;1.57;;;0.60;;
665;SDS011;315;48.738;9.126;2023-11-19T02:51:02;0.93;;;0.67;;
665;SDS011;315;48.738;9.126;2023-11-19T02:53:34;0.50;;;0.50;;
665;SDS011;315;48.738;9.126;2023-11-19T02:56:00;0.70;;;0.70;;
665;SDS011;315;48.738;9.126;2023-11-19T02:58:42;1.53;;;0.60;;
665;SDS011;315;48.738;9.126;2023-11-19T03:01:09;0.90;;;0.77;;
665;SDS011;315;48.738;9.126;2023-11-19T03:03:37;2.10;;;0.60;;
665;SDS011;315;48.738;9.126;2023-11-19T03:06:05;0.63;;;0.60;;
665;SDS011;315;48.738;9.126;2023-11-19T03:08:31;0.80;;;0.70;;
665;SDS011;315;48.738;9.126;2023-11-19T03:10:58;0.73;;;0.73;;
665;SDS011;315;48.738;9.126;2023-11-19T03:13:24;0.80;;;0.80;;
665;SDS011;315;48.738;9.126;2023-11-19T03:15:49;1.43;;;0.80;;
665;SDS011;315;48.738;9.126;2023-11-19T03:18:15;0.60;;;0.60;;
665;SDS011;315;48.738;9.126;2023-11-19T03:20:40;0.90;;;0.60;;
665;SDS011;315;48.738;9.126;2023-11-19T03:23:06;0.50;;;0.50;;
665;SDS011;315;48.738;9.126;2023-11-19T03:25:32;1.03;;;0.80;;
665;SDS011;315;48.738;9.126;2023-11-19T03:28:01;0.90;;;0.83;;
665;SDS011;315;48.738;9.126;2023-11-19T03:30:28;0.73;;;0.73;;
665;SDS011;315;48.738;9.126;2023-11-19T03:32:55;0.90;;;0.90;;
665;SDS011;315;48.738;9.126;2023-11-19T03:35:21;0.70;;;0.70;;
665;SDS011;315;48.738;9.126;2023-11-19T03:37:48;0.77;;;0.67;;
665;SDS011;315;48.738;9.126;2023-11-19T03:40:13;5.10;;;0.80;;
665;SDS011;315;48.738;9.126;2023-11-19T03:42:39;1.07;;;0.57;;
665;SDS011;315;48.738;9.126;2023-11-19T03:45:05;1.47;;;0.80;;
665;SDS011;315;48.738;9.126;2023-11-19T03:47:33;0.60;;;0.60;;
665;SDS011;315;48.738;9.126;2023-11-19T03:49:59;0.90;;;0.77;;
665;SDS011;315;48.738;9.126;2023-11-19T03:52:25;0.70;;;0.43;;
665;SDS011;315;48.738;9.126;2023-11-19T03:54:52;0.70;;;0.70;;
665;SDS011;315;48.738;9.126;2023-11-19T03:57:18;1.00;;;0.77;;
665;SDS011;315;48.738;9.126;2023-11-19T03:59:43;0.70;;;0.70;;
665;SDS011;315;48.738;9.126;2023-11-19T04:02:09;0.87;;;0.70;;
665;SDS011;315;48.738;9.126;2023-11-19T04:04:35;3.30;;;0.70;;
665;SDS011;315;48.738;9.126;2023-11-19T04:07:01;1.23;;;0.70;;
665;SDS011;315;48.738;9.126;2023-11-19T04:09:28;5.17;;;0.80;;
665;SDS011;315;48.738;9.126;2023-11-19T04:11:54;0.60;;;0.60;;
665;SDS011;315;48.738;9.126;2023-11-19T04:14:19;1.07;;;0.50;;
665;SDS011;315;48.738;9.126;2023-11-19T04:16:45;0.60;;;0.60;;
665;SDS011;315;48.738;9.126;2023-11-19T04:19:11;0.50;;;0.50;;
665;SDS011;315;48.738;9.126;2023-11-19T04:21:37;1.40;;;0.60;;
665;SDS011;315;48.738;9.126;2023-11-19T04:24:05;0.80;;;0.60;;
665;SDS011;315;48.738;9.126;2023-11-19T04:26:31;0.70;;;0.70;;
665;SDS011;315;48.738;9.126;2023-11-19T04:28:57;0.50;;;0.50;;
665;SDS011;315;48.738;9.126;2023-11-19T04:31:23;2.50;;;0.60;;
665;SDS011;315;48.738;9.126;2023-11-19T04:33:53;1.17;;;0.50;;
665;SDS011;315;48.738;9.126;2023-11-19T04:36:20;0.67;;;0.60;;
665;SDS011;315;48.738;9.126;2023-11-19T04:38:49;0.97;;;0.50;;
665;SDS011;315;48.738;9.126;2023-11-19T04:41:14;0.63;;;0.50;;
665;SDS011;315;48.738;9.126;2023-11-19T04:43:40;0.60;;;0.60;;
665;SDS011;315;48.738;9.126;2023-11-19T04:46:05;1.07;;;0.60;;
665;SDS011;315;48.738;9.126;2023-11-19T04:48:31;0.83;;;0.70;;
665;SDS011;315;48.738;9.126;2023-11-19T04:50:57;1.13;;;0.73;;
665;SDS011;315;48.738;9.126;2023-11-19T04:53:22;0.77;;;0.60;;
665;SDS011;315;48.738;9.126;2023-11-19T04:55:48;0.50;;;0.50;;
665;SDS011;315;48.738;9.126;2023-11-19T04:58:14;0.60;;;0.60;;
665;SDS011;315;48.738;9.126;2023-11-19T05:00:39;0.50;;;0.50;;
665;SDS011;315;48.738;9.126;2023-11-19T05:03:05;0.70;;;0.70;;
665;SDS011;315;48.738;9.126;2023-11-19T05:05:30;1.90;;;0.50;;
665;SDS011;315;48.738;9.126;2023-11-19T05:07:56;0.60;;;0.60;;
665;SDS011;315;48.738;9.126;2023-11-19T05:10:22;0.90;;;0.50;;
665;SDS011;315;48.738;9.126;2023-11-19T05:12:47;1.80;;;0.70;;
665;SDS011;315;48.738;9.126;2023-11-19T05:15:13;0.70;;;0.70;;
665;SDS011;315;48.738;9.126;2023-11-19T05:17:39;0.50;;;0.50;;
665;SDS011;315;48.738;9.126;2023-11-19T05:20:05;0.60;;;0.60;;
665;SDS011;315;48.738;9.126;2023-11-19T05:22:38;0.80;;;0.80;;
665;SDS011;315;48.738;9.126;2023-11-19T05:25:07;0.80;;;0.80;;
665;SDS011;315;48.738;9.126;2023-11-19T05:27:36;0.70;;;0.70;;
665;SDS011;315;48.738;9.126;2023-11-19T05:30:02;2.87;;;0.70;;
665;SDS011;315;48.738;9.126;2023-11-19T05:32:32;1.50;;;1.40;;
665;SDS011;315;48.738;9.126;2023-11-19T05:34:58;2.60;;;1.10;;
665;SDS011;315;48.738;9.126;2023-11-19T05:37:23;0.67;;;0.60;;
665;SDS011;315;48.738;9.126;2023-11-19T05:39:49;0.70;;;0.70;;
665;SDS011;315;48.738;9.126;2023-11-19T05:42:15;0.70;;;0.70;;
665;SDS011;315;48.738;9.126;2023-11-19T05:44:41;0.73;;;0.70;;
665;SDS011;315;48.738;9.126;2023-11-19T05:47:06;0.70;;;0.70;;
665;SDS011;315;48.738;9.126;2023-11-19T05:49:32;1.40;;;0.67;;
665;SDS011;315;48.738;9.126;2023-11-19T05:51:58;0.77;;;0.60;;
665;SDS011;315;48.738;9.126;2023-11-19T05:54:24;0.70;;;0.70;;
665;SDS011;315;48.738;9.126;2023-11-19T05:56:50;0.53;;;0.50;;
665;SDS011;315;48.738;9.126;2023-11-19T05:59:18;0.67;;;0.67;;
665;SDS011;315;48.738;9.126;2023-11-19T06:01:44;1.10;;;0.77;;
665;SDS011;315;48.738;9.126;2023-11-19T06:04:10;0.83;;;0.70;;
665;SDS011;315;48.738;9.126;2023-11-19T06:06:36;0.80;;;0.63;;
665;SDS011;315;48.738;9.126;2023-11-19T06:09:02;1.07;;;0.60;;
665;SDS011;315;48.738;9.126;2023-11-19T06:11:28;1.77;;;0.90;;
665;SDS011;315;48.738;9.126;2023-11-19T06:13:53;1.43;;;0.60;;
665;SDS011;315;48.738;9.126;2023-11-19T06:16:19;5.10;;;0.90;;
665;SDS011;315;48.738;9.126;2023-11-19T06:18:45;0.60;;;0.60;;
665;SDS011;315;48.738;9.126;2023-11-19T06:21:11;1.73;;;1.00;;
665;SDS011;315;48.738;9.126;2023-11-19T06:23:37;0.60;;;0.60;;
665;SDS011;315;48.738;9.126;2023-11-19T06:26:03;0.90;;;0.90;;
665;SDS011;315;48.738;9.126;2023-11-19T06:28:30;1.07;;;0.70;;
665;SDS011;315;48.738;9.126;2023-11-19T06:30:55;0.80;;;0.80;;
665;SDS011;315;48.738;9.126;2023-11-19T06:33:22;1.07;;;1.07;;
665;SDS011;315;48.738;9.126;2023-11-19T06:35:49;0.90;;;0.90;;
665;SDS011;315;48.738;9.126;2023-11-19T06:38:14;0.73;;;0.73;;
665;SDS011;315;48.738;9.126;2023-11-19T06:40:40;4.23;;;2.90;;
665;SDS011;315;48.738;9.126;2023-11-19T06:43:06;1.20;;;1.10;;
665;SDS011;315;48.738;9.126;2023-11-19T06:45:33;0.70;;;0.70;;
665;SDS011;315;48.738;9.126;2023-11-19T06:48:02;2.50;;;0.80;;
665;SDS011;315;48.738;9.126;2023-11-19T06:50:31;0.60;;;0.60;;
665;SDS011;315;48.738;9.126;2023-11-19T06:52:57;0.80;;;0.80;;
665;SDS011;315;48.738;9.126;2023-11-19T06:55:23;3.10;;;1.17;;
665;SDS011;315;48.738;9.126;2023-11-19T06:57:48;0.90;;;0.90;;
665;SDS011;315;48.738;9.126;2023-11-19T07:00:14;1.00;;;1.00;;
665;SDS011;315;48.738;9.126;2023-11-19T07:02:40;0.87;;;0.87;;
665;SDS011;315;48.738;9.126;2023-11-19T07:05:06;1.17;;;1.00;;
665;SDS011;315;48.738;9.126;2023-11-19T07:07:33;1.70;;;0.80;;
665;SDS011;315;48.738;9.126;2023-11-19T07:09:58;1.13;;;0.97;;
665;SDS011;315;48.738;9.126;2023-11-19T07:12:24;2.80;;;1.07;;
665;SDS011;315;48.738;9.126;2023-11-19T07:14:52;1.30;;;1.20;;
665;SDS011;315;48.738;9.126;2023-11-19T07:17:20;1.23;;;1.13;;
665;SDS011;315;48.738;9.126;2023-11-19T07:19:46;1.53;;;1.23;;
665;SDS011;315;48.738;9.126;2023-11-19T07:22:12;1.27;;;0.70;;
665;SDS011;315;48.738;9.126;2023-11-19T07:24:40;1.70;;;1.60;;
665;SDS011;315;48.738;9.126;2023-11-19T07:27:06;1.90;;;1.80;;
665;SDS011;315;48.738;9.126;2023-11-19T07:29:33;1.37;;;0.77;;
665;SDS011;315;48.738;9.126;2023-11-19T07:32:00;1.13;;;0.90;;
665;SDS011;315;48.738;9.126;2023-11-19T07:34:27;1.30;;;1.20;;
665;SDS011;315;48.738;9.126;2023-11-19T07:36:53;2.40;;;1.37;;
665;SDS011;315;48.738;9.126;2023-11-19T07:39:19;2.70;;;1.50;;
665;SDS011;315;48.738;9.126;2023-11-19T07:41:46;2.40;;;1.83;;
665;SDS011;315;48.738;9.126;2023-11-19T07:44:11;2.20;;;2.07;;
665;SDS011;315;48.738;9.126;2023-11-19T07:46:37;1.70;;;1.60;;
665;SDS011;315;48.738;9.126;2023-11-19T07:49:02;2.60;;;1.87;;
665;SDS011;315;48.738;9.126;2023-11-19T07:51:28;1.40;;;1.30;;
665;SDS011;315;48.738;9.126;2023-11-19T07:53:53;1.70;;;1.57;;
665;SDS011;315;48.738;9.126;2023-11-19T07:56:19;2.10;;;1.37;;
665;SDS011;315;48.738;9.126;2023-11-19T07:58:44;1.93;;;1.30;;
665;SDS011;315;48.738;9.126;2023-11-19T08:01:10;1.13;;;1.00;;
665;SDS011;315;48.738;9.126;2023-11-19T08:03:35;1.37;;;1.27;;
665;SDS011;315;48.738;9.126;2023-11-19T08:06:01;1.30;;;1.10;;
665;SDS011;315;48.738;9.126;2023-11-19T08:08:28;1.30;;;1.20;;
665;SDS011;315;48.738;9.126;2023-11-19T08:10:57;0.90;;;0.90;;
665;SDS011;315;48.738;9.126;2023-11-19T08:13:24;1.23;;;1.13;;
665;SDS011;315;48.738;9.126;2023-11-19T08:15:50;2.20;;;0.93;;
665;SDS011;315;48.738;9.126;2023-11-19T08:18:16;0.90;;;0.90;;
665;SDS011;315;48.738;9.126;2023-11-19T08:20:43;0.87;;;0.80;;
665;SDS011;315;48.738;9.126;2023-11-19T08:23:09;4.17;;;2.50;;
665;SDS011;315;48.738;9.126;2023-11-19T08:25:35;1.30;;;1.20;;
665;SDS011;315;48.738;9.126;2023-11-19T08:28:01;2.70;;;1.30;;
665;SDS011;315;48.738;9.126;2023-11-19T08:30:28;2.13;;;1.03;;
665;SDS011;315;48.738;9.126;2023-11-19T08:32:54;1.00;;;1.00;;
665;SDS011;315;48.738;9.126;2023-11-19T08:35:19;1.43;;;0.80;;
665;SDS011;315;48.738;9.126;2023-11-19T08:37:45;0.80;;;0.73;;
665;SDS011;315;48.738;9.126;2023-11-19T08:40:11;3.80;;;1.97;;
665;SDS011;315;48.738;9.126;2023-11-19T08:42:37;1.10;;;1.00;;
665;SDS011;315;48.738;9.126;2023-11-19T08:45:04;0.70;;;0.70;;
665;SDS011;315;48.738;9.126;2023-11-19T08:47:30;1.50;;;1.27;;
665;SDS011;315;48.738;9.126;2023-11-19T08:49:55;1.57;;;0.80;;
665;SDS011;315;48.738;9.126;2023-11-19T08:52:21;1.90;;;1.03;;
665;SDS011;315;48.738;9.126;2023-11-19T08:54:47;1.90;;;1.40;;
665;SDS011;315;48.738;9.126;2023-11-19T08:57:12;1.03;;;1.03;;
665;SDS011;315;48.738;9.126;2023-11-19T08:59:38;0.90;;;0.90;;
665;SDS011;315;48.738;9.126;2023-11-19T09:02:06;1.20;;;1.10;;
665;SDS011;315;48.738;9.126;2023-11-19T09:04:33;1.20;;;1.10;;
665;SDS011;315;48.738;9.126;2023-11-19T09:06:58;3.30;;;1.27;;
665;SDS011;315;48.738;9.126;2023-11-19T09:09:24;1.13;;;1.10;;
665;SDS011;315;48.738;9.126;2023-11-19T09:11:50;1.10;;;1.00;;
665;SDS011;315;48.738;9.126;2023-11-19T09:14:15;1.17;;;1.17;;
665;SDS011;315;48.738;9.126;2023-11-19T09:16:43;1.53;;;1.43;;
665;SDS011;315;48.738;9.126;2023-11-19T09:19:08;1.27;;;1.17;;
665;SDS011;315;48.738;9.126;2023-11-19T09:21:34;1.60;;;1.40;;
665;SDS011;315;48.738;9.126;2023-11-19T09:24:03;1.67;;;1.17;;
665;SDS011;315;48.738;9.126;2023-11-19T09:26:29;1.40;;;1.30;;
665;SDS011;315;48.738;9.126;2023-11-19T09:28:55;1.37;;;1.27;;
665;SDS011;315;48.738;9.126;2023-11-19T09:31:21;1.57;;;1.03;;
665;SDS011;315;48.738;9.126;2023-11-19T09:33:46;0.70;;;0.70;;
665;SDS011;315;48.738;9.126;2023-11-19T09:36:12;1.97;;;1.77;;
665;SDS011;315;48.738;9.126;2023-11-19T09:38:41;2.27;;;1.80;;
665;SDS011;315;48.738;9.126;2023-11-19T09:41:09;1.13;;;1.00;;
665;SDS011;315;48.738;9.126;2023-11-19T09:43:37;0.93;;;0.90;;
665;SDS011;315;48.738;9.126;2023-11-19T09:46:09;0.87;;;0.80;;
665;SDS011;315;48.738;9.126;2023-11-19T09:48:38;0.90;;;0.90;;
665;SDS011;315;48.738;9.126;2023-11-19T09:51:08;1.37;;;1.20;;
665;SDS011;315;48.738;9.126;2023-11-19T09:53:34;1.53;;;1.43;;
665;SDS011;315;48.738;9.126;2023-11-19T09:56:01;2.50;;;1.30;;
665;SDS011;315;48.738;9.126;2023-11-19T09:58:28;1.30;;;1.20;;
665;SDS011;315;48.738;9.126;2023-11-19T10:00:55;3.30;;;1.00;;
665;SDS011;315;48.738;9.126;2023-11-19T10:03:24;1.27;;;0.73;;
665;SDS011;315;48.738;9.126;2023-11-19T10:05:51;1.50;;;1.40;;
665;SDS011;315;48.738;9.126;2023-11-19T10:08:18;1.20;;;0.90;;
665;SDS011;315;48.738;9.126;2023-11-19T10:10:43;1.10;;;1.00;;
665;SDS011;315;48.738;9.126;2023-11-19T10:13:09;1.13;;;1.03;;
665;SDS011;315;48.738;9.126;2023-11-19T10:15:37;1.90;;;1.80;;
665;SDS011;315;48.738;9.126;2023-11-19T10:18:03;1.67;;;0.90;;
665;SDS011;315;48.738;9.126;2023-11-19T10:20:35;1.37;;;0.87;;
665;SDS011;315;48.738;9.126;2023-11-19T10:23:01;1.10;;;1.00;;
665;SDS011;315;48.738;9.126;2023-11-19T10:25:28;2.03;;;0.90;;
665;SDS011;315;48.738;9.126;2023-11-19T10:27:54;2.63;;;0.90;;
665;SDS011;315;48.738;9.126;2023-11-19T10:30:22;1.43;;;1.00;;
665;SDS011;315;48.738;9.126;2023-11-19T10:33:02;1.63;;;1.20;;
665;SDS011;315;48.738;9.126;2023-11-19T10:35:30;1.23;;;1.13;;
665;SDS011;315;48.738;9.126;2023-11-19T10:37:58;2.73;;;1.10;;
665;SDS011;315;48.738;9.126;2023-11-19T10:40:38;1.07;;;0.97;;
665;SDS011;315;48.738;9.126;2023-11-19T10:43:05;4.33;;;3.93;;
665;SDS011;315;48.738;9.126;2023-11-19T10:45:32;1.90;;;1.40;;
665;SDS011;315;48.738;9.126;2023-11-19T10:47:58;1.90;;;1.70;;
665;SDS011;315;48.738;9.126;2023-11-19T10:50:25;1.30;;;1.20;;
665;SDS011;315;48.738;9.126;2023-11-19T10:52:53;2.67;;;1.30;;
665;SDS011;315;48.738;9.126;2023-11-19T10:55:25;3.13;;;1.40;;
665;SDS011;315;48.738;9.126;2023-11-19T10:57:52;4.10;;;1.10;;
665;SDS011;315;48.738;9.126;2023-11-19T11:00:23;2.03;;;1.63;;
665;SDS011;315;48.738;9.126;2023-11-19T11:02:50;1.50;;;0.83;;
665;SDS011;315;48.738;9.126;2023-11-19T11:05:21;1.47;;;1.20;;
665;SDS011;315;48.738;9.126;2023-11-19T11:07:48;1.37;;;0.80;;
665;SDS011;315;48.738;9.126;2023-11-19T11:10:17;1.27;;;1.13;;
665;SDS011;315;48.738;9.126;2023-11-19T11:12:47;0.77;;;0.77;;
665;SDS011;315;48.738;9.126;2023-11-19T11:15:15;1.17;;;0.87;;
665;SDS011;315;48.738;9.126;2023-11-19T11:17:43;2.30;;;1.13;;
665;SDS011;315;48.738;9.126;2023-11-19T11:20:09;1.23;;;1.03;;
665;SDS011;315;48.738;9.126;2023-11-19T11:22:42;1.20;;;1.03;;
665;SDS011;315;48.738;9.126;2023-11-19T11:25:48;0.93;;;0.90;;
665;SDS011;315;48.738;9.126;2023-11-19T11:28:46;1.00;;;1.00;;
665;SDS011;315;48.738;9.126;2023-11-19T11:34:02;2.63;;;1.27;;
665;SDS011;315;48.738;9.126;2023-11-19T11:39:39;2.77;;;2.00;;
665;SDS011;315;48.738;9.126;2023-11-19T11:50:10;1.50;;;1.00;;
665;SDS011;315;48.738;9.126;2023-11-19T11:55:36;2.37;;;1.10;;
665;SDS011;315;48.738;9.126;2023-11-19T11:58:20;2.27;;;1.40;;
665;SDS011;315;48.738;9.126;2023-11-19T12:00:51;1.30;;;1.30;;
665;SDS011;315;48.738;9.126;2023-11-19T12:03:18;1.93;;;1.00;;
665;SDS011;315;48.738;9.126;2023-11-19T12:05:47;1.27;;;1.07;;
665;SDS011;315;48.738;9.126;2023-11-19T12:08:13;1.63;;;1.13;;
665;SDS011;315;48.738;9.126;2023-11-19T12:10:47;2.03;;;1.40;;
665;SDS011;315;48.738;9.126;2023-11-19T12:13:15;1.57;;;1.40;;
665;SDS011;315;48.738;9.126;2023-11-19T12:18:22;1.73;;;1.47;;
665;SDS011;315;48.738;9.126;2023-11-19T12:20:48;1.80;;;1.27;;
665;SDS011;315;48.738;9.126;2023-11-19T12:23:14;1.30;;;1.20;;
665;SDS011;315;48.738;9.126;2023-11-19T12:25:40;1.53;;;1.27;;
665;SDS011;315;48.738;9.126;2023-11-19T12:28:05;0.90;;;0.90;;
665;SDS011;315;48.738;9.126;2023-11-19T12:30:31;1.37;;;1.27;;
665;SDS011;315;48.738;9.126;2023-11-19T12:32:57;1.83;;;1.10;;
665;SDS011;315;48.738;9.126;2023-11-19T12:35:23;1.80;;;1.40;;
665;SDS011;315;48.738;9.126;2023-11-19T12:37:49;2.40;;;2.23;;
665;SDS011;315;48.738;9.126;2023-11-19T12:42:50;1.57;;;1.43;;
665;SDS011;315;48.738;9.126;2023-11-19T12:45:17;1.70;;;1.60;;
665;SDS011;315;48.738;9.126;2023-11-19T12:47:45;1.93;;;1.30;;
665;SDS011;315;48.738;9.126;2023-11-19T12:50:14;1.50;;;1.40;;
665;SDS011;315;48.738;9.126;2023-11-19T12:52:42;1.43;;;1.33;;
665;SDS011;315;48.738;9.126;2023-11-19T12:55:26;1.20;;;1.00;;
665;SDS011;315;48.738;9.126;2023-11-19T12:57:54;1.30;;;1.20;;
665;SDS011;315;48.738;9.126;2023-11-19T13:00:23;1.00;;;0.83;;
665;SDS011;315;48.738;9.126;2023-11-19T13:02:53;1.40;;;1.27;;
665;SDS011;315;48.738;9.126;2023-11-19T13:05:24;1.23;;;0.93;;
665;SDS011;315;48.738;9.126;2023-11-19T13:10:25;2.77;;;1.57;;
665;SDS011;315;48.738;9.126;2023-11-19T13:13:01;3.23;;;1.53;;
665;SDS011;315;48.738;9.126;2023-11-19T13:15:32;2.03;;;1.30;;
665;SDS011;315;48.738;9.126;2023-11-19T13:17:58;2.30;;;2.10;;
665;SDS011;315;48.738;9.126;2023-11-19T13:20:23;5.33;;;3.47;;
665;SDS011;315;48.738;9.126;2023-11-19T13:23:02;2.63;;;2.43;;
665;SDS011;315;48.738;9.126;2023-11-19T13:25:29;3.03;;;2.63;;
665;SDS011;315;48.738;9.126;2023-11-19T13:27:55;2.93;;;1.57;;
665;SDS011;315;48.738;9.126;2023-11-19T13:30:21;1.30;;;1.20;;
665;SDS011;315;48.738;9.126;2023-11-19T13:32:48;3.47;;;1.90;;
665;SDS011;315;48.738;9.126;2023-11-19T13:35:15;1.67;;;1.57;;
665;SDS011;315;48.738;9.126;2023-11-19T13:37:42;2.13;;;1.10;;
665;SDS011;315;48.738;9.126;2023-11-19T13:40:07;1.60;;;1.50;;
665;SDS011;315;48.738;9.126;2023-11-19T13:42:35;1.30;;;1.20;;
665;SDS011;315;48.738;9.126;2023-11-19T13:45:06;1.03;;;0.93;;
665;SDS011;315;48.738;9.126;2023-11-19T13:47:37;2.03;;;1.30;;
665;SDS011;315;48.738;9.126;2023-11-19T13:50:07;1.63;;;1.53;;
665;SDS011;315;48.738;9.126;2023-11-19T13:52:40;1.63;;;1.53;;
665;SDS011;315;48.738;9.126;2023-11-19T13:55:08;3.30;;;2.37;;
665;SDS011;315;48.738;9.126;2023-11-19T13:57:35;2.40;;;1.17;;
665;SDS011;315;48.738;9.126;2023-11-19T14:00:04;1.60;;;1.40;;
665;SDS011;315;48.738;9.126;2023-11-19T14:02:45;1.43;;;0.97;;
665;SDS011;315;48.738;9.126;2023-11-19T14:05:12;2.10;;;1.90;;
665;SDS011;315;48.738;9.126;2023-11-19T14:07:39;3.23;;;1.73;;
665;SDS011;315;48.738;9.126;2023-11-19T14:10:05;8.83;;;8.13;;
665;SDS011;315;48.738;9.126;2023-11-19T14:12:33;5.60;;;5.20;;
665;SDS011;315;48.738;9.126;2023-11-19T14:14:59;7.93;;;6.13;;
665;SDS011;315;48.738;9.126;2023-11-19T14:17:25;3.93;;;3.63;;
665;SDS011;315;48.738;9.126;2023-11-19T14:19:51;4.30;;;3.90;;
665;SDS011;315;48.738;9.126;2023-11-19T14:22:16;5.33;;;4.87;;
665;SDS011;315;48.738;9.126;2023-11-19T14:24:42;5.17;;;4.77;;
665;SDS011;315;48.738;9.126;2023-11-19T14:27:08;10.10;;;6.13;;
665;SDS011;315;48.738;9.126;2023-11-19T14:29:37;7.50;;;6.10;;
665;SDS011;315;48.738;9.126;2023-11-19T14:32:03;5.33;;;3.97;;
665;SDS011;315;48.738;9.126;2023-11-19T14:34:32;6.63;;;2.77;;
665;SDS011;315;48.738;9.126;2023-11-19T14:36:58;1.83;;;1.73;;
665;SDS011;315;48.738;9.126;2023-11-19T14:39:23;3.23;;;2.00;;
665;SDS011;315;48.738;9.126;2023-11-19T14:41:49;2.83;;;1.60;;
665;SDS011;315;48.738;9.126;2023-11-19T14:44:15;6.63;;;1.40;;
665;SDS011;315;48.738;9.126;2023-11-19T14:46:41;1.83;;;1.20;;
665;SDS011;315;48.738;9.126;2023-11-19T14:49:07;2.00;;;1.17;;
665;SDS011;315;48.738;9.126;2023-11-19T14:51:36;3.83;;;2.80;;
665;SDS011;315;48.738;9.126;2023-11-19T14:54:03;1.87;;;1.20;;
665;SDS011;315;48.738;9.126;2023-11-19T14:56:29;3.10;;;1.30;;
665;SDS011;315;48.738;9.126;2023-11-19T14:58:54;1.27;;;1.00;;
665;SDS011;315;48.738;9.126;2023-11-19T15:01:20;2.60;;;1.13;;
665;SDS011;315;48.738;9.126;2023-11-19T15:03:45;3.67;;;1.60;;
665;SDS011;315;48.738;9.126;2023-11-19T15:06:11;3.60;;;1.53;;
665;SDS011;315;48.738;9.126;2023-11-19T15:08:37;2.60;;;1.07;;
665;SDS011;315;48.738;9.126;2023-11-19T15:11:03;1.50;;;1.37;;
665;SDS011;315;48.738;9.126;2023-11-19T15:13:30;1.57;;;0.90;;
665;SDS011;315;48.738;9.126;2023-11-19T15:15:57;1.47;;;1.07;;
665;SDS011;315;48.738;9.126;2023-11-19T15:18:22;2.80;;;1.67;;
665;SDS011;315;48.738;9.126;2023-11-19T15:20:48;1.50;;;1.40;;
665;SDS011;315;48.738;9.126;2023-11-19T15:23:14;1.53;;;1.43;;
665;SDS011;315;48.738;9.126;2023-11-19T15:25:40;3.57;;;1.60;;
665;SDS011;315;48.738;9.126;2023-11-19T15:28:06;1.10;;;1.00;;
665;SDS011;315;48.738;9.126;2023-11-19T15:30:32;1.30;;;1.20;;
665;SDS011;315;48.738;9.126;2023-11-19T15:32:57;2.23;;;1.70;;
665;SDS011;315;48.738;9.126;2023-11-19T15:35:23;1.10;;;1.00;;
665;SDS011;315;48.738;9.126;2023-11-19T15:37:48;1.30;;;1.20;;
665;SDS011;315;48.738;9.126;2023-11-19T15:40:14;1.40;;;1.27;;
665;SDS011;315;48.738;9.126;2023-11-19T15:42:40;2.03;;;1.33;;
665;SDS011;315;48.738;9.126;2023-11-19T15:45:08;3.50;;;1.47;;
665;SDS011;315;48.738;9.126;2023-11-19T15:47:34;1.23;;;1.13;;
665;SDS011;315;48.738;9.126;2023-11-19T15:50:00;2.90;;;1.20;;
665;SDS011;315;48.738;9.126;2023-11-19T15:52:26;2.97;;;1.33;;
665;SDS011;315;48.738;9.126;2023-11-19T15:54:52;2.20;;;1.40;;
665;SDS011;315;48.738;9.126;2023-11-19T15:57:18;1.17;;;1.03;;
665;SDS011;315;48.738;9.126;2023-11-19T15:59:43;1.20;;;1.10;;
665;SDS011;315;48.738;9.126;2023-11-19T16:02:09;1.23;;;1.00;;
665;SDS011;315;48.738;9.126;2023-11-19T16:04:35;1.60;;;1.40;;
665;SDS011;315;48.738;9.126;2023-11-19T16:07:00;1.17;;;1.07;;
665;SDS011;315;48.738;9.126;2023-11-19T16:09:26;3.67;;;1.43;;
665;SDS011;315;48.738;9.126;2023-11-19T16:11:53;1.47;;;1.37;;